createdAt,value
2022-12-12T00:01:37.507Z,6.10
2022-12-12T00:04:06.108Z,6.70
2022-12-12T00:06:34.187Z,6.50
2022-12-12T00:09:02.578Z,5.80
2022-12-12T00:11:31.357Z,6.00
2022-12-12T00:13:59.410Z,6.30
2022-12-12T00:16:29.236Z,6.70
2022-12-12T00:18:57.557Z,5.70
2022-12-12T00:21:28.205Z,6.70
2022-12-12T00:23:57.852Z,6.10
2022-12-12T00:26:29.390Z,6.80
2022-12-12T00:28:58.976Z,6.30
2022-12-12T00:31:28.323Z,6.80
2022-12-12T00:33:56.939Z,7.30
2022-12-12T00:36:27.457Z,7.00
2022-12-12T00:38:55.853Z,7.50
2022-12-12T00:41:24.181Z,6.40
2022-12-12T00:43:52.147Z,7.00
2022-12-12T00:46:23.197Z,6.30
2022-12-12T00:48:55.356Z,6.30
2022-12-12T00:51:25.178Z,5.90
2022-12-12T00:53:53.274Z,6.00
2022-12-12T00:56:22.856Z,6.10
2022-12-12T00:58:51.498Z,6.30
2022-12-12T01:01:30.927Z,6.20
2022-12-12T01:03:59.560Z,6.10
2022-12-12T01:06:28.815Z,5.80
2022-12-12T01:08:57.252Z,6.20
2022-12-12T01:11:26.047Z,5.30
2022-12-12T01:13:55.385Z,5.90
2022-12-12T01:16:24.845Z,6.20
2022-12-12T01:18:53.586Z,6.50
2022-12-12T01:21:22.274Z,6.70
2022-12-12T01:23:50.684Z,6.10
2022-12-12T01:26:22.199Z,5.80
2022-12-12T01:28:50.849Z,6.20
2022-12-12T01:31:19.515Z,6.00
2022-12-12T01:33:47.693Z,5.30
2022-12-12T01:36:17.747Z,5.30
2022-12-12T01:38:52.184Z,5.60
2022-12-12T01:41:21.554Z,5.40
2022-12-12T01:43:50.068Z,5.60
2022-12-12T01:46:35.822Z,6.30
2022-12-12T01:49:11.591Z,6.10
2022-12-12T01:51:41.116Z,6.60
2022-12-12T01:54:24.373Z,6.20
2022-12-12T01:56:55.135Z,5.60
2022-12-12T01:59:25.890Z,6.50
2022-12-12T02:01:54.849Z,5.50
2022-12-12T02:04:23.665Z,6.00
2022-12-12T02:06:53.082Z,6.10
2022-12-12T02:09:22.472Z,6.40
2022-12-12T02:11:53.847Z,6.70
2022-12-12T02:14:34.653Z,6.20
2022-12-12T02:17:27.715Z,6.20
2022-12-12T02:20:19.052Z,5.90
2022-12-12T02:22:59.191Z,6.70
2022-12-12T02:25:55.247Z,6.30
2022-12-12T02:31:21.615Z,5.50
2022-12-12T02:33:59.888Z,5.60
2022-12-12T02:36:43.978Z,6.10
2022-12-12T02:39:33.299Z,5.40
2022-12-12T02:42:15.751Z,5.80
2022-12-12T02:44:59.434Z,5.90
2022-12-12T02:47:31.575Z,5.90
2022-12-12T02:50:14.112Z,5.90
2022-12-12T02:52:43.846Z,6.00
2022-12-12T02:55:12.453Z,5.80
2022-12-12T02:57:42.243Z,6.30
2022-12-12T03:00:18.508Z,7.10
2022-12-12T03:03:42.442Z,6.60
2022-12-12T03:07:01.636Z,6.30
2022-12-12T03:09:57.808Z,7.00
2022-12-12T03:15:23.034Z,6.20
2022-12-12T03:18:10.950Z,6.40
2022-12-12T03:20:48.966Z,6.90
2022-12-12T03:23:25.163Z,6.60
2022-12-12T03:26:07.007Z,5.70
2022-12-12T03:28:58.967Z,6.00
2022-12-12T03:31:31.417Z,5.80
2022-12-12T03:34:05.536Z,6.10
2022-12-12T03:36:58.054Z,6.30
2022-12-12T03:39:36.809Z,5.90
2022-12-12T03:42:21.418Z,6.50
2022-12-12T03:44:55.875Z,7.20
2022-12-12T03:47:35.061Z,6.20
2022-12-12T03:50:19.518Z,7.40
2022-12-12T03:53:15.398Z,7.00
2022-12-12T03:55:53.250Z,7.70
2022-12-12T03:58:32.416Z,7.40
2022-12-12T04:01:04.643Z,7.80
2022-12-12T04:03:47.240Z,6.80
2022-12-12T04:06:27.190Z,7.70
2022-12-12T04:09:20.331Z,7.60
2022-12-12T04:12:19.334Z,7.80
2022-12-12T04:15:09.029Z,7.90
2022-12-12T04:17:47.364Z,7.20
2022-12-12T04:20:54.226Z,7.40
2022-12-12T04:23:59.760Z,7.40
2022-12-12T04:26:39.733Z,6.60
2022-12-12T04:29:26.257Z,6.80
2022-12-12T04:32:09.604Z,8.00
2022-12-12T04:34:44.471Z,7.10
2022-12-12T04:37:17.770Z,6.40
2022-12-12T04:39:50.636Z,6.20
2022-12-12T04:42:22.668Z,5.50
2022-12-12T04:44:54.352Z,6.00
2022-12-12T04:47:24.263Z,5.80
2022-12-12T04:49:55.716Z,6.30
2022-12-12T04:52:25.984Z,6.60
2022-12-12T04:55:03.182Z,6.30
2022-12-12T04:57:43.190Z,6.30
2022-12-12T05:00:14.062Z,6.60
2022-12-12T05:02:48.192Z,6.90
2022-12-12T05:05:28.599Z,6.10
2022-12-12T05:08:03.579Z,6.80
2022-12-12T05:10:32.019Z,8.20
2022-12-12T05:13:01.640Z,6.70
2022-12-12T05:15:30.542Z,7.20
2022-12-12T05:18:09.076Z,6.60
2022-12-12T05:20:37.868Z,7.50
2022-12-12T05:23:06.220Z,7.00
2022-12-12T05:25:34.308Z,6.90
2022-12-12T05:28:02.721Z,6.90
2022-12-12T05:30:31.314Z,6.60
2022-12-12T05:32:59.796Z,7.00
2022-12-12T05:35:28.422Z,6.90
2022-12-12T05:37:56.760Z,7.00
2022-12-12T05:40:25.201Z,7.00
2022-12-12T05:42:53.527Z,7.40
2022-12-12T05:45:21.742Z,6.90
2022-12-12T05:47:49.983Z,7.70
2022-12-12T05:50:18.338Z,7.60
2022-12-12T05:52:46.788Z,7.70
2022-12-12T05:55:15.148Z,8.70
2022-12-12T05:57:43.527Z,6.90
2022-12-12T06:00:12.048Z,6.80
2022-12-12T06:02:40.357Z,6.40
2022-12-12T06:05:09.551Z,7.00
2022-12-12T06:07:37.688Z,7.00
2022-12-12T06:10:06.938Z,7.00
2022-12-12T06:12:35.946Z,9.50
2022-12-12T06:15:05.150Z,9.10
2022-12-12T06:17:33.762Z,8.80
2022-12-12T06:20:02.859Z,7.50
2022-12-12T06:22:31.158Z,8.40
2022-12-12T06:24:59.760Z,8.70
2022-12-12T06:27:28.358Z,8.50
2022-12-12T06:29:56.798Z,8.00
2022-12-12T06:32:25.249Z,8.70
2022-12-12T06:34:53.994Z,8.50
2022-12-12T06:37:22.878Z,7.90
2022-12-12T06:39:51.514Z,7.10
2022-12-12T06:42:19.655Z,7.70
2022-12-12T06:44:47.898Z,7.90
2022-12-12T06:47:16.207Z,9.00
2022-12-12T06:49:44.323Z,7.90
2022-12-12T06:52:13.071Z,8.40
2022-12-12T06:54:41.791Z,6.50
2022-12-12T06:57:10.732Z,7.60
2022-12-12T06:59:39.061Z,9.10
2022-12-12T07:02:07.410Z,8.90
2022-12-12T07:04:35.729Z,7.70
2022-12-12T07:07:03.978Z,9.40
2022-12-12T07:09:32.215Z,8.30
2022-12-12T07:12:00.771Z,8.10
2022-12-12T07:14:29.270Z,8.20
2022-12-12T07:16:58.292Z,7.70
2022-12-12T07:19:27.756Z,8.10
2022-12-12T07:21:56.469Z,8.40
2022-12-12T07:24:24.676Z,8.40
2022-12-12T07:26:53.304Z,10.10
2022-12-12T07:29:21.687Z,10.00
2022-12-12T07:31:49.890Z,10.70
2022-12-12T07:34:18.426Z,10.10
2022-12-12T07:36:47.252Z,10.60
2022-12-12T07:39:20.351Z,10.70
2022-12-12T07:41:49.619Z,10.50
2022-12-12T07:44:22.843Z,10.40
2022-12-12T07:46:51.462Z,9.60
2022-12-12T07:49:20.831Z,9.90
2022-12-12T07:51:50.456Z,9.60
2022-12-12T07:54:19.257Z,10.70
2022-12-12T07:56:48.215Z,11.10
2022-12-12T07:59:16.750Z,10.90
2022-12-12T08:01:46.114Z,12.20
2022-12-12T08:04:15.177Z,13.60
2022-12-12T08:06:44.146Z,12.40
2022-12-12T08:09:12.848Z,8.30
2022-12-12T08:11:46.038Z,11.40
2022-12-12T08:14:14.909Z,12.00
2022-12-12T08:16:43.459Z,10.90
2022-12-12T08:19:12.277Z,9.90
2022-12-12T08:21:40.868Z,9.70
2022-12-12T08:24:13.208Z,11.10
2022-12-12T08:26:43.550Z,12.90
2022-12-12T08:29:13.033Z,11.80
2022-12-12T08:31:41.825Z,13.00
2022-12-12T08:34:10.636Z,14.30
2022-12-12T08:36:40.247Z,12.30
2022-12-12T08:39:12.977Z,15.50
2022-12-12T08:41:43.778Z,14.20
2022-12-12T08:44:13.811Z,15.30
2022-12-12T08:46:42.951Z,14.20
2022-12-12T08:49:12.657Z,15.30
2022-12-12T08:51:42.051Z,14.90
2022-12-12T08:54:13.043Z,14.20
2022-12-12T08:56:42.143Z,14.50
2022-12-12T08:59:10.668Z,14.00
2022-12-12T09:01:39.218Z,9.90
2022-12-12T09:04:08.051Z,11.30
2022-12-12T09:06:36.499Z,10.90
2022-12-12T09:09:05.392Z,11.60
2022-12-12T09:11:34.243Z,12.30
2022-12-12T09:14:03.548Z,9.30
2022-12-12T09:16:33.677Z,12.10
2022-12-12T09:19:02.903Z,9.30
2022-12-12T09:21:31.626Z,10.60
2022-12-12T09:24:00.512Z,13.70
2022-12-12T09:26:29.388Z,13.20
2022-12-12T09:28:58.329Z,14.90
2022-12-12T09:31:27.317Z,13.70
2022-12-12T09:33:55.830Z,17.10
2022-12-12T09:36:24.960Z,14.00
2022-12-12T09:38:53.672Z,16.40
2022-12-12T09:41:30.835Z,16.90
2022-12-12T09:44:19.076Z,14.90
2022-12-12T09:46:51.648Z,15.30
2022-12-12T09:49:39.864Z,16.90
2022-12-12T09:52:17.876Z,15.50
2022-12-12T09:54:46.342Z,16.70
2022-12-12T09:57:40.874Z,15.90
2022-12-12T10:00:14.192Z,16.70
2022-12-12T10:03:13.944Z,16.80
2022-12-12T10:06:07.446Z,15.20
2022-12-12T10:09:01.799Z,12.80
2022-12-12T10:11:54.646Z,14.50
2022-12-12T10:14:38.964Z,13.70
2022-12-12T10:17:16.887Z,14.20
2022-12-12T10:20:16.926Z,14.30
2022-12-12T10:22:52.473Z,14.20
2022-12-12T10:25:42.327Z,15.30
2022-12-12T10:28:14.135Z,14.00
2022-12-12T10:30:55.407Z,13.00
2022-12-12T10:33:30.102Z,14.50
2022-12-12T10:36:33.330Z,14.20
2022-12-12T10:39:14.466Z,15.70
2022-12-12T10:42:01.052Z,15.40
2022-12-12T10:44:54.047Z,15.50
2022-12-12T10:47:24.930Z,12.70
2022-12-12T10:50:14.841Z,12.90
2022-12-12T10:52:43.942Z,10.60
2022-12-12T10:55:41.074Z,12.90
2022-12-12T10:58:14.160Z,12.80
2022-12-12T11:00:47.462Z,13.60
2022-12-12T11:03:31.620Z,12.10
2022-12-12T11:06:05.312Z,13.70
2022-12-12T11:08:36.115Z,11.50
2022-12-12T11:11:21.893Z,13.90
2022-12-12T11:16:22.859Z,13.30
2022-12-12T11:18:58.473Z,13.60
2022-12-12T11:21:29.299Z,12.30
2022-12-12T11:23:59.788Z,13.70
2022-12-12T11:26:30.963Z,13.80
2022-12-12T11:29:03.497Z,15.00
2022-12-12T11:31:35.659Z,13.00
2022-12-12T11:34:07.690Z,9.10
2022-12-12T11:36:42.183Z,12.60
2022-12-12T11:39:21.563Z,12.60
2022-12-12T11:42:02.287Z,12.90
2022-12-12T11:44:37.340Z,12.90
2022-12-12T11:47:26.902Z,13.00
2022-12-12T11:49:59.261Z,12.90
2022-12-12T11:52:31.549Z,12.90
2022-12-12T11:55:01.229Z,14.20
2022-12-12T11:58:18.044Z,13.20
2022-12-12T12:01:03.342Z,12.30
2022-12-12T12:03:51.279Z,13.10
2022-12-12T12:06:31.761Z,12.90
2022-12-12T12:09:26.247Z,13.20
2022-12-12T12:12:23.189Z,10.20
2022-12-12T12:14:57.883Z,11.40
2022-12-12T12:17:40.425Z,10.70
2022-12-12T12:20:33.806Z,10.60
2022-12-12T12:23:16.396Z,9.80
2022-12-12T12:26:10.636Z,12.30
2022-12-12T12:28:42.269Z,13.40
2022-12-12T12:31:41.114Z,12.40
2022-12-12T12:34:21.515Z,14.00
2022-12-12T12:37:14.807Z,12.90
2022-12-12T12:40:10.575Z,13.30
2022-12-12T12:43:00.540Z,12.90
2022-12-12T12:45:45.698Z,12.30
2022-12-12T12:48:37.466Z,13.40
2022-12-12T12:51:13.679Z,15.10
2022-12-12T12:54:07.245Z,14.10
2022-12-12T12:56:44.306Z,14.40
2022-12-12T12:59:21.498Z,13.00
2022-12-12T13:01:53.626Z,13.90
2022-12-12T13:04:42.322Z,11.90
2022-12-12T13:07:28.237Z,12.30
2022-12-12T13:10:18.142Z,12.10
2022-12-12T13:13:00.165Z,12.90
2022-12-12T13:15:40.868Z,14.30
2022-12-12T13:18:18.031Z,15.40
2022-12-12T13:20:58.083Z,12.40
2022-12-12T13:23:29.782Z,14.40
2022-12-12T13:26:06.554Z,14.00
2022-12-12T13:28:45.802Z,15.20
2022-12-12T13:31:36.312Z,14.90
2022-12-12T13:34:07.374Z,12.70
2022-12-12T13:36:40.066Z,11.80
2022-12-12T13:39:27.904Z,12.90
2022-12-12T13:42:02.853Z,11.20
2022-12-12T13:44:45.164Z,11.30
2022-12-12T13:47:36.194Z,12.60
2022-12-12T13:50:11.965Z,10.30
2022-12-12T13:52:44.263Z,13.60
2022-12-12T13:55:18.715Z,11.80
2022-12-12T13:57:59.419Z,12.40
2022-12-12T14:00:39.114Z,12.60
2022-12-12T14:03:11.129Z,12.90
2022-12-12T14:05:46.530Z,12.60
2022-12-12T14:08:16.390Z,12.80
2022-12-12T14:10:53.009Z,13.60
2022-12-12T14:13:24.536Z,11.00
2022-12-12T14:15:56.041Z,14.50
2022-12-12T14:18:54.290Z,13.10
2022-12-12T14:21:47.916Z,12.60
2022-12-12T14:24:34.912Z,11.80
2022-12-12T14:27:07.796Z,11.70
2022-12-12T14:29:46.177Z,10.60
2022-12-12T14:32:37.555Z,11.50
2022-12-12T14:35:24.398Z,12.90
2022-12-12T14:38:09.656Z,14.00
2022-12-12T14:40:44.803Z,13.60
2022-12-12T14:43:24.811Z,12.90
2022-12-12T14:45:58.488Z,12.80
2022-12-12T14:48:36.540Z,13.80
2022-12-12T14:51:29.267Z,13.80
2022-12-12T14:54:00.827Z,14.70
2022-12-12T14:56:59.243Z,14.70
2022-12-12T14:59:34.374Z,6.50
2022-12-12T15:02:33.353Z,6.40
2022-12-12T15:05:06.058Z,6.30
2022-12-12T15:07:38.413Z,6.60
2022-12-12T15:10:29.504Z,8.20
2022-12-12T15:12:58.595Z,7.90
2022-12-12T15:15:33.731Z,8.40
2022-12-12T15:18:02.900Z,6.80
2022-12-12T15:20:32.576Z,9.90
2022-12-12T15:23:04.522Z,4.10
2022-12-12T15:25:41.132Z,5.70
2022-12-12T15:28:19.272Z,3.60
2022-12-12T15:30:57.653Z,6.30
2022-12-12T15:33:28.945Z,4.10
2022-12-12T15:36:05.445Z,3.90
2022-12-12T15:38:34.792Z,2.90
2022-12-12T15:41:12.980Z,2.60
2022-12-12T15:43:43.479Z,5.90
2022-12-12T15:46:15.244Z,5.80
2022-12-12T15:48:46.147Z,5.80
2022-12-12T15:51:21.126Z,4.90
2022-12-12T15:53:55.591Z,6.50
2022-12-12T15:56:29.520Z,4.80
2022-12-12T15:59:05.219Z,4.50
2022-12-12T16:01:34.514Z,4.70
2022-12-12T16:04:06.857Z,4.70
2022-12-12T16:06:49.212Z,4.10
2022-12-12T16:09:24.619Z,5.40
2022-12-12T16:11:54.512Z,6.20
2022-12-12T16:14:39.056Z,5.40
2022-12-12T16:17:17.856Z,5.60
2022-12-12T16:20:07.478Z,5.50
2022-12-12T16:22:45.219Z,4.90
2022-12-12T16:25:29.514Z,5.10
2022-12-12T16:28:07.778Z,5.00
2022-12-12T16:30:38.917Z,4.60
2022-12-12T16:33:30.989Z,3.20
2022-12-12T16:36:01.206Z,2.40
2022-12-12T16:38:30.375Z,3.20
2022-12-12T16:41:05.731Z,4.50
2022-12-12T16:43:35.121Z,6.20
2022-12-12T16:46:03.971Z,6.50
2022-12-12T16:48:37.891Z,6.20
2022-12-12T16:51:09.332Z,5.30
2022-12-12T16:53:38.668Z,5.80
2022-12-12T16:56:08.425Z,6.10
2022-12-12T16:58:37.477Z,5.60
2022-12-12T17:01:06.968Z,5.80
2022-12-12T17:03:36.284Z,6.10
2022-12-12T17:06:05.173Z,5.80
2022-12-12T17:08:34.014Z,5.80
2022-12-12T17:11:10.688Z,2.90
2022-12-12T17:13:48.366Z,5.90
2022-12-12T17:16:21.407Z,6.70
2022-12-12T17:18:53.612Z,5.40
2022-12-12T17:21:22.640Z,3.30
2022-12-12T17:23:51.119Z,6.90
2022-12-12T17:26:19.699Z,3.60
2022-12-12T17:28:48.085Z,4.00
2022-12-12T17:31:16.838Z,6.30
2022-12-12T17:33:50.957Z,4.20
2022-12-12T17:36:20.185Z,5.80
2022-12-12T17:38:49.646Z,5.70
2022-12-12T17:41:18.107Z,7.20
2022-12-12T17:43:52.058Z,8.80
2022-12-12T17:46:25.505Z,8.00
2022-12-12T17:48:56.811Z,8.50
2022-12-12T17:51:25.970Z,4.60
2022-12-12T17:53:55.318Z,8.00
2022-12-12T17:56:25.293Z,6.60
2022-12-12T17:58:54.810Z,7.30
2022-12-12T18:01:27.753Z,7.10
2022-12-12T18:03:56.582Z,4.80
2022-12-12T18:06:26.678Z,7.40
2022-12-12T18:08:55.074Z,7.50
2022-12-12T18:11:31.732Z,6.20
2022-12-12T18:14:02.290Z,6.10
2022-12-12T18:16:32.434Z,8.20
2022-12-12T18:19:01.365Z,8.10
2022-12-12T18:24:22.516Z,11.10
2022-12-12T18:26:54.279Z,15.30
2022-12-12T18:29:23.457Z,11.80
2022-12-12T18:31:52.845Z,11.30
2022-12-12T18:34:21.418Z,13.40
2022-12-12T18:36:50.075Z,6.50
2022-12-12T18:39:18.469Z,10.10
2022-12-12T18:41:46.746Z,11.20
2022-12-12T18:44:16.741Z,9.20
2022-12-12T18:46:46.022Z,10.50
2022-12-12T18:49:15.976Z,9.70
2022-12-12T18:51:46.575Z,10.50
2022-12-12T18:54:16.580Z,10.50
2022-12-12T18:56:46.314Z,11.50
2022-12-12T18:59:15.816Z,10.50
2022-12-12T19:01:45.070Z,10.50
2022-12-12T19:04:19.104Z,10.60
2022-12-12T19:06:49.964Z,9.80
2022-12-12T19:09:20.137Z,9.00
2022-12-12T19:11:55.561Z,10.20
2022-12-12T19:14:35.654Z,10.00
2022-12-12T19:17:09.279Z,8.60
2022-12-12T19:19:37.755Z,9.20
2022-12-12T19:22:18.712Z,8.30
2022-12-12T19:24:55.852Z,8.00
2022-12-12T19:27:26.401Z,7.50
2022-12-12T19:29:56.112Z,8.10
2022-12-12T19:32:24.877Z,7.00
2022-12-12T19:34:53.604Z,7.00
2022-12-12T19:37:23.277Z,6.00
2022-12-12T19:39:53.134Z,8.00
2022-12-12T19:42:21.863Z,7.50
2022-12-12T19:44:50.547Z,3.30
2022-12-12T19:47:19.329Z,3.40
2022-12-12T19:49:50.009Z,7.30
2022-12-12T19:52:19.805Z,7.80
2022-12-12T19:54:48.437Z,7.00
2022-12-12T19:57:17.119Z,7.40
2022-12-12T19:59:45.424Z,6.40
2022-12-12T20:02:13.538Z,6.90
2022-12-12T20:04:41.818Z,6.50
2022-12-12T20:07:09.939Z,7.50
2022-12-12T20:09:38.121Z,6.90
2022-12-12T20:12:06.619Z,6.20
2022-12-12T20:14:35.603Z,5.50
2022-12-12T20:17:03.898Z,4.80
2022-12-12T20:19:32.156Z,4.80
2022-12-12T20:22:01.605Z,4.80
2022-12-12T20:24:32.669Z,4.50
2022-12-12T20:27:03.870Z,4.40
2022-12-12T20:29:32.822Z,5.10
2022-12-12T20:32:01.866Z,4.50
2022-12-12T20:34:30.289Z,4.60
2022-12-12T20:36:58.933Z,4.00
2022-12-12T20:39:27.180Z,4.10
2022-12-12T20:41:56.840Z,4.80
2022-12-12T20:44:31.498Z,4.60
2022-12-12T20:47:01.118Z,4.50
2022-12-12T20:49:30.315Z,4.70
2022-12-12T20:51:59.570Z,4.70
2022-12-12T20:54:29.758Z,4.30
2022-12-12T20:56:59.000Z,4.70
2022-12-12T20:59:27.638Z,4.80
2022-12-12T21:01:55.950Z,5.10
2022-12-12T21:04:24.469Z,5.30
2022-12-12T21:06:53.158Z,5.30
2022-12-12T21:09:25.753Z,5.10
2022-12-12T21:11:58.594Z,5.10
2022-12-12T21:14:30.927Z,5.30
2022-12-12T21:16:59.723Z,5.90
2022-12-12T21:19:28.295Z,5.60
2022-12-12T21:21:56.833Z,6.10
2022-12-12T21:24:25.137Z,5.90
2022-12-12T21:26:53.347Z,6.20
2022-12-12T21:29:21.432Z,6.10
2022-12-12T21:31:52.102Z,6.30
2022-12-12T21:34:23.840Z,7.20
2022-12-12T21:36:56.367Z,7.70
2022-12-12T21:39:27.214Z,6.70
2022-12-12T21:41:56.628Z,7.80
2022-12-12T21:44:25.788Z,8.00
2022-12-12T21:46:54.452Z,8.70
2022-12-12T21:49:28.760Z,8.00
2022-12-12T21:52:02.581Z,8.80
2022-12-12T21:54:31.514Z,8.10
2022-12-12T21:57:01.054Z,7.70
2022-12-12T21:59:29.611Z,9.00
2022-12-12T22:01:59.742Z,8.60
2022-12-12T22:04:28.622Z,8.80
2022-12-12T22:06:57.474Z,8.30
2022-12-12T22:09:27.113Z,7.40
2022-12-12T22:12:03.133Z,8.30
2022-12-12T22:14:34.264Z,8.90
2022-12-12T22:17:04.204Z,6.90
2022-12-12T22:19:32.607Z,7.70
2022-12-12T22:22:00.921Z,6.20
2022-12-12T22:24:28.978Z,6.30
2022-12-12T22:26:57.235Z,6.30
2022-12-12T22:29:25.465Z,6.70
2022-12-12T22:31:53.697Z,5.90
2022-12-12T22:34:23.972Z,6.70
2022-12-12T22:36:52.802Z,6.60
2022-12-12T22:39:26.077Z,6.10
2022-12-12T22:41:55.868Z,6.90
2022-12-12T22:44:25.364Z,6.80
2022-12-12T22:46:55.033Z,7.10
2022-12-12T22:49:27.823Z,6.90
2022-12-12T22:51:57.649Z,6.20
2022-12-12T22:54:26.862Z,7.40
2022-12-12T22:56:55.128Z,7.80
2022-12-12T22:59:25.386Z,7.60
2022-12-12T23:01:53.908Z,8.60
2022-12-12T23:04:22.073Z,8.70
2022-12-12T23:06:50.003Z,9.30
2022-12-12T23:09:22.992Z,8.60
2022-12-12T23:11:51.271Z,8.20
2022-12-12T23:14:22.823Z,8.10
2022-12-12T23:16:51.653Z,6.10
2022-12-12T23:19:25.792Z,7.70
2022-12-12T23:21:54.495Z,7.10
2022-12-12T23:24:22.432Z,8.30
2022-12-12T23:26:51.764Z,9.20
2022-12-12T23:29:21.094Z,8.50
2022-12-12T23:31:49.583Z,9.30
2022-12-12T23:34:22.964Z,8.70
2022-12-12T23:36:52.752Z,8.60
2022-12-12T23:39:21.898Z,9.70
2022-12-12T23:41:50.050Z,8.60
2022-12-12T23:44:19.866Z,9.10
2022-12-12T23:46:48.625Z,7.90
2022-12-12T23:49:23.040Z,8.30
2022-12-12T23:51:56.662Z,8.60
2022-12-12T23:54:28.026Z,7.70
2022-12-12T23:56:56.225Z,8.40
2022-12-12T23:59:26.235Z,8.80
